Time;durP1;ratioP1;P1;durP2;ratioP2;P2;SDS_P1;SDS_P2;PMS_P1;PMS_P2;Temp;Humidity;BMP_temperature;BMP_pressure;BME280_temperature;BME280_humidity;BME280_pressure;Samples;Min_cycle;Max_cycle;Signal;HPM_P1;HPM_P2
2022/10/30 00:00:00;;;;;;;8.10;3.30;;;;;;;22.12;63.09;99470.22;2075146;28;20053;-51
2022/10/30 00:01:02;;;;;;;3.28;1.85;;;;;;;22.14;62.94;99470.00;2074555;28;20053;-53
2022/10/30 00:02:03;;;;;;;4.97;2.78;;;;;;;22.14;62.90;99478.09;2075530;28;20053;-52
2022/10/30 00:03:05;;;;;;;5.70;2.67;;;;;;;22.13;62.95;99465.66;2076140;28;20057;-53
2022/10/30 00:04:05;;;;;;;5.05;2.15;;;;;;;22.13;62.78;99471.06;2076536;28;20401;-53
2022/10/30 00:05:08;;;;;;;3.13;1.88;;;;;;;22.14;63.12;99472.72;2074129;28;20052;-53
2022/10/30 00:06:09;;;;;;;4.63;1.77;;;;;;;22.13;63.06;99465.66;2075813;28;20049;-52
2022/10/30 00:07:11;;;;;;;3.22;2.03;;;;;;;22.14;62.83;99472.72;2075177;28;20045;-51
2022/10/30 00:08:13;;;;;;;3.85;2.38;;;;;;;22.13;63.01;99471.06;2076030;28;20053;-52
2022/10/30 00:09:15;;;;;;;2.97;2.00;;;;;;;22.13;63.11;99476.47;2074336;28;20564;-51
2022/10/30 00:10:16;;;;;;;2.83;1.67;;;;;;;22.14;62.96;99467.31;2074027;28;20048;-53
2022/10/30 00:11:18;;;;;;;3.90;2.65;;;;;;;22.13;62.91;99471.06;2071962;28;20055;-50
2022/10/30 00:12:20;;;;;;;4.30;2.00;;;;;;;22.11;62.97;99467.72;2074516;28;20355;-51
2022/10/30 00:13:22;;;;;;;2.97;1.83;;;;;;;22.11;62.91;99467.72;2075402;28;20092;-53
2022/10/30 00:14:23;;;;;;;4.60;2.08;;;;;;;22.10;63.01;99466.91;2075520;28;20061;-51
2022/10/30 00:15:25;;;;;;;5.40;2.13;;;;;;;22.12;62.91;99463.97;2073743;28;20049;-50
2022/10/30 00:16:25;;;;;;;4.10;2.17;;;;;;;22.12;63.00;99463.97;2076037;28;20049;-52
2022/10/30 00:17:27;;;;;;;4.65;1.88;;;;;;;22.12;62.96;99459.41;2074712;28;20041;-49
2022/10/30 00:18:28;;;;;;;3.10;1.60;;;;;;;22.12;63.04;99469.38;2075513;28;20076;-50
2022/10/30 00:19:30;;;;;;;2.10;1.73;;;;;;;22.12;62.83;99458.56;2075930;28;20055;-49
2022/10/30 00:20:31;;;;;;;2.47;1.80;;;;;;;22.10;62.78;99466.91;2074778;28;20060;-53
2022/10/30 00:21:32;;;;;;;4.82;2.30;;;;;;;22.12;62.99;99466.66;2073908;28;20052;-52
2022/10/30 00:22:34;;;;;;;4.53;2.05;;;;;;;22.11;62.78;99465.84;2075728;28;20173;-54
2022/10/30 00:23:36;;;;;;;2.90;1.90;;;;;;;22.10;62.83;99461.50;2074155;28;20114;-53
2022/10/30 00:24:37;;;;;;;2.80;2.00;;;;;;;22.12;62.92;99463.97;2075238;28;20064;-53
2022/10/30 00:25:38;;;;;;;4.97;2.42;;;;;;;22.12;62.86;99466.66;2075383;28;20045;-53
2022/10/30 00:26:39;;;;;;;5.93;2.38;;;;;;;22.11;62.94;99467.72;2074619;28;20069;-53
2022/10/30 00:27:42;;;;;;;2.65;1.80;;;;;;;22.11;62.86;99459.63;2075267;28;20045;-53
2022/10/30 00:28:44;;;;;;;3.53;2.00;;;;;;;22.13;62.92;99462.94;2074394;28;20046;-53
2022/10/30 00:29:45;;;;;;;3.97;2.00;;;;;;;22.09;63.03;99454.41;2073673;28;20079;-54
2022/10/30 00:30:47;;;;;;;3.63;2.08;;;;;;;22.09;62.76;99455.25;2075182;28;20060;-53
2022/10/30 00:31:48;;;;;;;2.85;2.42;;;;;;;22.09;62.97;99454.41;2075505;28;20088;-51
2022/10/30 00:32:50;;;;;;;6.72;2.92;;;;;;;22.09;62.88;99449.00;2075480;28;20755;-53
2022/10/30 00:33:51;;;;;;;2.80;1.55;;;;;;;22.07;62.76;99453.81;2076082;28;20049;-53
2022/10/30 00:34:53;;;;;;;2.80;2.00;;;;;;;22.07;62.94;99454.63;2075205;28;20093;-54
2022/10/30 00:35:54;;;;;;;3.25;1.75;;;;;;;22.06;62.90;99450.28;2068515;28;20052;-50
2022/10/30 00:36:56;;;;;;;5.47;1.48;;;;;;;22.07;62.90;99443.81;2074406;28;20103;-51
2022/10/30 00:37:59;;;;;;;3.65;2.22;;;;;;;22.08;62.92;99445.47;2070714;28;20045;-52
2022/10/30 00:39:00;;;;;;;4.95;2.05;;;;;;;22.07;62.88;99448.41;2066800;28;20042;-53
2022/10/30 00:40:02;;;;;;;2.78;2.05;;;;;;;22.08;62.82;99445.47;2066320;28;20061;-54
2022/10/30 00:41:03;;;;;;;4.55;2.53;;;;;;;22.07;62.87;99443.00;2065200;28;20623;-54
2022/10/30 00:42:05;;;;;;;2.30;1.63;;;;;;;22.08;62.85;99445.47;2067536;28;20139;-52
2022/10/30 00:43:33;;;;;;;4.00;2.67;;;;;;;22.04;62.76;99441.53;2067084;28;20413;-50
2022/10/30 00:44:37;;;;;;;2.40;1.80;;;;;;;22.02;62.90;99438.19;2065898;28;20360;-51
2022/10/30 00:45:38;;;;;;;3.55;1.92;;;;;;;22.04;62.93;99444.25;2072741;28;20131;-53
2022/10/30 00:46:41;;;;;;;3.45;2.05;;;;;;;22.05;62.83;99439.66;2065393;28;20046;-53
2022/10/30 00:47:46;;;;;;;4.35;1.90;;;;;;;22.06;62.83;99434.06;2067815;28;20048;-57
2022/10/30 00:48:53;;;;;;;2.90;2.13;;;;;;;22.05;62.84;99437.78;2068051;28;20064;-52
2022/10/30 00:50:01;;;;;;;4.55;1.83;;;;;;;22.06;62.65;99444.88;2068017;28;20132;-52
2022/10/30 00:51:04;;;;;;;2.78;1.75;;;;;;;22.04;62.92;99440.72;2063195;28;20057;-53
2022/10/30 00:52:08;;;;;;;3.00;1.80;;;;;;;22.05;62.77;99434.25;2067986;28;20067;-53
2022/10/30 00:53:14;;;;;;;4.00;2.05;;;;;;;22.04;62.90;99441.53;2067634;28;20646;-54
2022/10/30 00:54:17;;;;;;;6.40;1.83;;;;;;;22.05;62.75;99436.97;2065905;28;20041;-53
2022/10/30 00:55:25;;;;;;;3.92;2.17;;;;;;;22.06;62.90;99436.75;2068452;28;20092;-53
2022/10/30 00:56:26;;;;;;;2.78;1.70;;;;;;;22.04;62.76;99438.00;2068046;28;20552;-53
2022/10/30 00:57:28;;;;;;;5.97;2.25;;;;;;;22.05;62.69;99439.66;2065322;28;20073;-53
2022/10/30 00:58:35;;;;;;;5.57;1.85;;;;;;;22.05;62.54;99443.19;2069321;28;20058;-52
2022/10/30 00:59:37;;;;;;;2.63;1.38;;;;;;;22.02;62.42;99437.38;2066223;28;20049;-53
2022/10/30 01:00:42;;;;;;;3.33;2.35;;;;;;;22.04;62.58;99441.53;2071316;28;20049;-52
2022/10/30 01:01:46;;;;;;;3.85;2.10;;;;;;;22.03;62.76;99436.31;2067554;28;20041;-53
2022/10/30 01:02:49;;;;;;;4.07;1.80;;;;;;;22.03;62.79;99437.16;2067364;28;20053;-54
2022/10/30 01:03:56;;;;;;;3.20;1.52;;;;;;;22.07;62.68;99441.13;2067076;28;20127;-54
2022/10/30 01:04:57;;;;;;;4.70;1.92;;;;;;;22.02;62.73;99440.91;2067216;28;20045;-53
2022/10/30 01:06:02;;;;;;;4.63;1.83;;;;;;;22.05;62.73;99436.97;2067650;28;20049;-54
2022/10/30 01:07:08;;;;;;;5.13;1.70;;;;;;;22.02;62.79;99437.38;2068658;28;20068;-53
2022/10/30 01:08:10;;;;;;;1.77;1.52;;;;;;;22.02;62.82;99434.66;2075385;28;20077;-53
2022/10/30 01:09:11;;;;;;;4.80;1.90;;;;;;;22.02;62.77;99438.19;2073293;28;20052;-54
2022/10/30 01:10:14;;;;;;;3.75;2.15;;;;;;;22.03;62.67;99439.84;2066954;28;20055;-51
2022/10/30 01:11:15;;;;;;;3.97;2.13;;;;;;;22.03;62.79;99439.84;2066625;28;20053;-54
2022/10/30 01:12:17;;;;;;;3.67;1.88;;;;;;;22.03;62.90;99439.84;2068284;28;20429;-54
2022/10/30 01:13:21;;;;;;;4.53;1.88;;;;;;;22.04;62.84;99444.25;2068909;28;20045;-53
2022/10/30 01:14:24;;;;;;;4.47;2.35;;;;;;;22.02;62.61;99437.38;2065671;28;20416;-50
2022/10/30 01:15:30;;;;;;;2.45;1.67;;;;;;;22.02;62.74;99434.66;2066944;28;20547;-53
2022/10/30 01:16:49;;;;;;;3.13;2.20;;;;;;;22.01;62.71;99441.94;2070724;28;20041;-52
2022/10/30 01:18:08;;;;;;;4.47;1.83;;;;;;;21.99;62.91;99435.91;2065688;28;20052;-52
2022/10/30 01:19:18;;;;;;;3.22;2.08;;;;;;;21.97;62.99;99437.97;2066568;28;20143;-53
2022/10/30 01:20:37;;;;;;;3.40;2.40;;;;;;;21.97;62.89;99437.97;2067077;28;20896;-54
2022/10/30 01:21:50;;;;;;;2.80;2.22;;;;;;;21.98;62.89;99436.97;2065641;28;20056;-54
2022/10/30 01:23:02;;;;;;;3.78;1.33;;;;;;;21.97;62.74;99426.34;2067757;28;20162;-52
2022/10/30 01:24:19;;;;;;;4.38;2.13;;;;;;;21.97;62.86;99432.59;2066167;28;20095;-53
2022/10/30 01:25:35;;;;;;;4.63;1.80;;;;;;;21.94;62.86;99424.91;2069172;28;20049;-49
2022/10/30 01:26:46;;;;;;;3.80;1.98;;;;;;;21.97;62.98;99423.66;2068538;28;20690;-53
2022/10/30 01:27:56;;;;;;;4.47;1.90;;;;;;;21.96;63.16;99433.63;2068464;28;20050;-51
2022/10/30 01:29:08;;;;;;;2.45;1.48;;;;;;;21.96;62.82;99428.22;2068932;28;20049;-53
2022/10/30 01:30:30;;;;;;;3.60;1.83;;;;;;;21.94;63.21;99424.91;2066887;28;20053;-53
2022/10/30 01:31:48;;;;;;;2.42;1.52;;;;;;;21.95;63.10;99423.84;2067668;28;20041;-51
2022/10/30 01:33:03;;;;;;;2.88;1.65;;;;;;;21.96;62.87;99425.53;2068572;28;20061;-51
2022/10/30 01:34:16;;;;;;;3.08;1.92;;;;;;;21.94;63.18;99422.19;2069390;28;20052;-51
2022/10/30 01:35:23;;;;;;;3.08;1.85;;;;;;;21.96;63.11;99422.81;2069083;28;20335;-54
2022/10/30 01:36:32;;;;;;;5.63;2.88;;;;;;;21.97;63.01;99418.25;2067048;28;21035;-54
2022/10/30 01:37:39;;;;;;;2.67;2.20;;;;;;;21.95;62.93;99421.16;2066878;28;20076;-50
2022/10/30 01:38:46;;;;;;;2.65;1.90;;;;;;;21.97;62.91;99419.06;2069636;28;20050;-54
2022/10/30 01:39:48;;;;;;;2.00;1.58;;;;;;;21.96;62.86;99414.72;2068423;28;20053;-55
2022/10/30 01:40:49;;;;;;;2.47;1.88;;;;;;;21.98;62.91;99415.34;2065252;28;20669;-52
2022/10/30 01:41:52;;;;;;;3.15;1.83;;;;;;;21.98;62.85;99415.34;2065299;28;20057;-51
2022/10/30 01:42:54;;;;;;;2.55;1.40;;;;;;;21.97;63.02;99419.06;2067618;28;20128;-54
2022/10/30 01:43:59;;;;;;;4.20;1.70;;;;;;;21.98;62.88;99420.75;2066017;28;20141;-52
2022/10/30 01:45:01;;;;;;;5.32;1.83;;;;;;;21.97;62.91;99412.84;2066821;28;20052;-53
2022/10/30 01:46:23;;;;;;;3.20;2.20;;;;;;;21.96;62.93;99416.59;2067636;28;20053;-51
2022/10/30 01:47:36;;;;;;;2.72;1.80;;;;;;;21.94;62.85;99418.66;2069556;28;20045;-52
2022/10/30 01:49:12;;;;;;;3.28;1.90;;;;;;;21.90;63.10;99415.56;2066753;28;20056;-53
2022/10/30 01:50:25;;;;;;;2.65;1.73;;;;;;;21.91;62.83;99419.09;2061634;28;20045;-53
2022/10/30 01:51:41;;;;;;;2.60;1.80;;;;;;;21.91;62.87;99419.91;2065869;28;20045;-53
2022/10/30 01:52:48;;;;;;;5.07;1.90;;;;;;;21.92;62.90;99421.56;2066393;28;20593;-55
2022/10/30 01:53:56;;;;;;;3.25;1.80;;;;;;;21.92;62.99;99421.56;2067824;28;20129;-52
2022/10/30 01:55:04;;;;;;;3.72;1.55;;;;;;;21.95;62.98;99420.31;2066060;28;20736;-53
2022/10/30 01:56:18;;;;;;;4.18;1.50;;;;;;;21.92;62.73;99410.75;2068670;28;20073;-53
2022/10/30 01:57:33;;;;;;;2.45;1.90;;;;;;;21.92;62.97;99418.84;2067342;28;20662;-52
2022/10/30 01:58:44;;;;;;;4.07;1.60;;;;;;;21.93;63.02;99419.72;2067480;28;20077;-53
2022/10/30 01:59:51;;;;;;;2.72;1.67;;;;;;;21.93;63.05;99414.31;2069276;28;20042;-53
2022/10/30 02:00:56;;;;;;;2.65;1.83;;;;;;;21.93;62.96;99417.00;2069350;28;20064;-53
2022/10/30 02:01:59;;;;;;;2.00;1.25;;;;;;;21.94;62.79;99411.38;2066872;28;20107;-53
2022/10/30 02:03:00;;;;;;;2.47;1.70;;;;;;;21.93;62.66;99407.03;2071686;28;20537;-52
2022/10/30 02:04:02;;;;;;;2.78;1.67;;;;;;;21.94;62.80;99408.69;2068168;28;20041;-54
2022/10/30 02:05:05;;;;;;;2.78;2.05;;;;;;;21.95;62.81;99404.94;2071933;28;20042;-53
2022/10/30 02:06:07;;;;;;;3.17;1.90;;;;;;;21.93;62.81;99401.63;2068141;28;20778;-53
2022/10/30 02:07:10;;;;;;;2.55;1.77;;;;;;;21.95;62.90;99406.81;2068725;28;20053;-50
2022/10/30 02:08:12;;;;;;;5.45;2.50;;;;;;;21.93;62.75;99401.63;2067257;28;20041;-53
2022/10/30 02:09:14;;;;;;;3.13;1.70;;;;;;;21.94;62.63;99403.28;2068451;28;20056;-53
2022/10/30 02:10:16;;;;;;;3.53;1.98;;;;;;;21.93;62.82;99401.63;2066884;28;20048;-51
2022/10/30 02:11:17;;;;;;;3.47;1.80;;;;;;;21.93;62.89;99398.94;2067207;28;20046;-54
2022/10/30 02:12:20;;;;;;;3.40;1.80;;;;;;;21.94;62.69;99402.47;2068289;28;20053;-51
2022/10/30 02:13:21;;;;;;;3.28;1.77;;;;;;;21.94;62.69;99400.59;2070077;28;20516;-51
2022/10/30 02:14:28;;;;;;;3.83;2.03;;;;;;;21.95;62.47;99398.72;2069883;28;20049;-53
2022/10/30 02:15:30;;;;;;;2.55;2.17;;;;;;;21.92;62.78;99399.13;2070246;28;20045;-52
2022/10/30 02:16:35;;;;;;;2.38;1.90;;;;;;;21.93;62.75;99404.34;2068000;28;20046;-53
2022/10/30 02:17:39;;;;;;;5.05;1.73;;;;;;;21.94;62.52;99397.88;2072362;28;20049;-52
2022/10/30 02:18:40;;;;;;;2.42;1.70;;;;;;;21.93;62.56;99403.50;2071698;28;20041;-52
2022/10/30 02:19:42;;;;;;;2.78;1.42;;;;;;;21.93;62.88;99400.81;2071810;28;20049;-50
2022/10/30 02:20:44;;;;;;;4.63;2.15;;;;;;;21.93;62.75;99401.63;2068571;28;20132;-53
2022/10/30 02:21:46;;;;;;;3.58;1.55;;;;;;;21.92;62.67;99399.94;2071908;28;20053;-53
2022/10/30 02:22:47;;;;;;;2.65;2.13;;;;;;;21.92;62.51;99397.25;2065940;28;20049;-52
2022/10/30 02:23:49;;;;;;;2.15;1.05;;;;;;;21.93;62.70;99398.94;2072454;28;20049;-53
2022/10/30 02:24:50;;;;;;;3.72;1.73;;;;;;;21.93;62.68;99396.22;2068390;28;20168;-53
2022/10/30 02:25:52;;;;;;;2.58;1.63;;;;;;;21.93;62.58;99387.31;2074531;28;20962;-51
2022/10/30 02:26:52;;;;;;;2.05;1.48;;;;;;;21.94;62.53;99397.06;2071857;28;20493;-53
2022/10/30 02:27:54;;;;;;;4.15;1.83;;;;;;;21.93;62.51;99400.81;2072815;28;20046;-52
2022/10/30 02:28:55;;;;;;;2.45;1.42;;;;;;;21.93;62.49;99390.00;2074332;28;20045;-53
2022/10/30 02:29:59;;;;;;;3.22;1.88;;;;;;;21.92;62.39;99389.16;2073427;28;20057;-51
2022/10/30 02:30:59;;;;;;;3.10;1.83;;;;;;;21.91;62.62;99392.91;2071754;28;20573;-53
2022/10/30 02:32:01;;;;;;;4.18;2.10;;;;;;;21.91;62.55;99394.78;2074579;28;20053;-53
2022/10/30 02:33:02;;;;;;;3.22;1.90;;;;;;;21.90;62.63;99396.66;2073480;28;20053;-53
2022/10/30 02:34:04;;;;;;;3.25;1.63;;;;;;;21.92;62.37;99391.03;2070935;28;20690;-52
2022/10/30 02:35:06;;;;;;;5.40;2.17;;;;;;;21.92;62.56;99391.84;2066783;28;20057;-51
2022/10/30 02:36:10;;;;;;;3.33;1.65;;;;;;;21.91;62.57;99390.19;2066892;28;20164;-51
2022/10/30 02:37:10;;;;;;;5.85;2.60;;;;;;;21.92;62.40;99388.31;2074254;28;20045;-54
2022/10/30 02:38:12;;;;;;;3.28;2.03;;;;;;;21.90;62.67;99390.38;2070739;28;20172;-53
2022/10/30 02:39:13;;;;;;;2.85;1.85;;;;;;;21.92;62.55;99386.44;2071468;28;20045;-50
2022/10/30 02:40:15;;;;;;;4.25;1.77;;;;;;;21.91;62.42;99384.78;2071943;28;20634;-52
2022/10/30 02:41:16;;;;;;;3.40;1.75;;;;;;;21.92;62.51;99389.16;2064538;28;20054;-51
2022/10/30 02:42:17;;;;;;;3.70;2.00;;;;;;;21.93;62.57;99395.41;2072400;28;20049;-53
2022/10/30 02:43:18;;;;;;;2.50;1.70;;;;;;;21.91;62.50;99382.09;2067184;28;20061;-52
2022/10/30 02:44:20;;;;;;;4.80;1.95;;;;;;;21.89;62.66;99389.56;2069871;28;20053;-51
2022/10/30 02:45:21;;;;;;;4.47;1.90;;;;;;;21.89;62.66;99384.16;2071099;28;20121;-53
2022/10/30 02:46:23;;;;;;;2.22;1.83;;;;;;;21.91;62.64;99383.97;2069069;28;20503;-54
2022/10/30 02:47:24;;;;;;;3.03;1.60;;;;;;;21.89;62.66;99384.16;2072532;28;20056;-52
2022/10/30 02:48:26;;;;;;;;;;;;;;;21.78;62.83;99393.69;2074403;28;20047;-53
2022/10/30 02:49:26;;;;;;;4.18;2.05;;;;;;;21.82;62.90;99380.66;2073269;28;19929;-54
2022/10/30 02:50:28;;;;;;;2.28;1.80;;;;;;;21.84;62.90;99389.34;2067582;28;20046;-50
2022/10/30 02:51:31;;;;;;;2.08;1.50;;;;;;;21.89;62.49;99380.63;2072161;28;20421;-53
2022/10/30 02:52:33;;;;;;;2.65;1.48;;;;;;;21.87;62.51;99380.88;2071995;28;20052;-54
2022/10/30 02:53:34;;;;;;;3.42;1.60;;;;;;;21.88;62.37;99387.91;2068364;28;20072;-52
2022/10/30 02:54:36;;;;;;;3.55;2.22;;;;;;;21.89;62.41;99377.94;2069158;28;20052;-50
2022/10/30 02:55:37;;;;;;;2.00;1.42;;;;;;;21.88;62.53;99379.81;2071080;28;20068;-53
2022/10/30 02:56:40;;;;;;;2.92;1.85;;;;;;;21.89;62.28;99380.63;2067291;28;20056;-54
2022/10/30 02:57:41;;;;;;;4.45;2.13;;;;;;;21.88;62.49;99381.69;2073632;28;20061;-50
2022/10/30 02:58:43;;;;;;;2.35;1.90;;;;;;;21.89;62.58;99384.16;2070570;28;20056;-58
2022/10/30 02:59:44;;;;;;;3.70;1.90;;;;;;;21.89;62.82;99383.34;2074823;28;20605;-54
2022/10/30 03:00:46;;;;;;;4.75;1.90;;;;;;;21.89;62.44;99383.34;2066208;28;20132;-52
2022/10/30 03:01:47;;;;;;;3.60;1.25;;;;;;;21.87;62.60;99388.97;2067801;28;20053;-52
2022/10/30 03:02:48;;;;;;;4.10;2.15;;;;;;;21.88;62.48;99379.81;2071126;28;20053;-52
2022/10/30 03:03:50;;;;;;;1.67;1.40;;;;;;;21.86;62.63;99379.19;2073098;28;20084;-52
2022/10/30 03:04:52;;;;;;;3.67;1.75;;;;;;;21.85;62.53;99378.34;2072292;28;20049;-53
2022/10/30 03:05:53;;;;;;;2.70;1.75;;;;;;;21.86;62.53;99380.00;2070966;28;20608;-53
2022/10/30 03:06:56;;;;;;;1.85;1.60;;;;;;;21.88;62.62;99381.69;2068237;28;20058;-53
2022/10/30 03:07:57;;;;;;;3.20;2.00;;;;;;;21.86;62.53;99381.88;2067431;28;20536;-53
2022/10/30 03:08:58;;;;;;;3.75;1.80;;;;;;;21.86;62.81;99376.47;2073817;28;20073;-52
2022/10/30 03:09:59;;;;;;;2.03;1.25;;;;;;;21.86;62.54;99379.19;2072127;28;20054;-53
2022/10/30 03:11:02;;;;;;;2.75;1.42;;;;;;;21.88;62.53;99389.78;2065309;28;20053;-50
2022/10/30 03:12:03;;;;;;;4.07;2.78;;;;;;;21.87;62.54;99375.47;2069648;28;20053;-53
2022/10/30 03:13:05;;;;;;;4.68;2.00;;;;;;;21.85;62.60;99374.81;2071162;28;20514;-50
2022/10/30 03:14:06;;;;;;;3.72;1.70;;;;;;;21.86;62.60;99384.59;2072189;28;20045;-50
2022/10/30 03:15:08;;;;;;;2.10;1.40;;;;;;;21.85;62.71;99381.06;2069481;28;20044;-52
2022/10/30 03:16:11;;;;;;;6.63;2.15;;;;;;;21.85;62.79;99380.22;2071689;28;20046;-53
2022/10/30 03:17:13;;;;;;;4.40;1.55;;;;;;;21.84;62.58;99382.09;2069204;28;20135;-53
2022/10/30 03:18:14;;;;;;;2.40;1.30;;;;;;;21.85;62.61;99382.94;2073390;28;20520;-51
2022/10/30 03:19:16;;;;;;;4.00;1.83;;;;;;;21.85;62.58;99388.34;2070880;28;20050;-55
2022/10/30 03:20:17;;;;;;;2.15;1.55;;;;;;;21.85;62.68;99382.94;2072768;28;20053;-54
2022/10/30 03:21:21;;;;;;;4.68;2.17;;;;;;;21.83;62.64;99383.13;2072173;28;20550;-54
2022/10/30 03:22:23;;;;;;;4.20;1.70;;;;;;;21.84;62.67;99382.09;2073771;28;20046;-54
2022/10/30 03:23:25;;;;;;;4.82;1.75;;;;;;;21.86;62.61;99389.97;2072355;28;20053;-53
2022/10/30 03:24:26;;;;;;;2.60;1.65;;;;;;;21.83;62.84;99385.00;2068324;28;20060;-53
2022/10/30 03:25:28;;;;;;;2.65;1.60;;;;;;;21.83;62.49;99382.28;2072010;28;20046;-50
2022/10/30 03:26:30;;;;;;;1.85;1.33;;;;;;;21.82;62.83;99384.16;2072539;28;20041;-53
2022/10/30 03:27:30;;;;;;;2.30;1.83;;;;;;;21.84;62.78;99378.53;2071896;28;20517;-52
2022/10/30 03:28:33;;;;;;;2.05;1.85;;;;;;;21.84;62.55;99389.34;2072953;28;20060;-53
2022/10/30 03:29:34;;;;;;;2.28;1.65;;;;;;;21.83;62.72;99380.41;2073943;28;20053;-49
2022/10/30 03:30:35;;;;;;;2.60;1.90;;;;;;;21.84;62.57;99382.09;2073339;28;20052;-52
2022/10/30 03:31:36;;;;;;;3.83;2.25;;;;;;;21.83;62.84;99379.59;2075075;28;20041;-54
2022/10/30 03:32:38;;;;;;;1.45;1.35;;;;;;;21.83;62.54;99385.00;2074812;28;20053;-53
2022/10/30 03:33:39;;;;;;;2.22;1.33;;;;;;;21.84;62.45;99386.66;2074938;28;20057;-50
2022/10/30 03:34:41;;;;;;;3.47;1.73;;;;;;;21.84;62.55;99382.09;2073728;28;20053;-51
2022/10/30 03:35:43;;;;;;;4.15;2.40;;;;;;;21.83;62.58;99376.91;2072015;28;20108;-54
2022/10/30 03:36:45;;;;;;;2.15;1.33;;;;;;;21.84;62.74;99386.66;2073035;28;20234;-50
2022/10/30 03:37:47;;;;;;;3.60;2.05;;;;;;;21.84;62.53;99381.25;2071848;28;20060;-52
2022/10/30 03:38:49;;;;;;;2.65;1.30;;;;;;;21.82;62.87;99383.34;2069252;28;20807;-53
2022/10/30 03:39:51;;;;;;;4.68;2.25;;;;;;;21.83;62.52;99382.28;2070672;28;20061;-51
2022/10/30 03:40:52;;;;;;;2.63;1.80;;;;;;;21.81;62.57;99387.06;2068811;28;20659;-53
2022/10/30 03:41:54;;;;;;;4.00;1.65;;;;;;;21.81;62.64;99387.91;2069255;28;20049;-53
2022/10/30 03:42:54;;;;;;;2.58;1.67;;;;;;;21.82;62.67;99389.56;2068840;28;20406;-53
2022/10/30 03:43:56;;;;;;;5.07;1.75;;;;;;;21.81;62.54;99387.91;2068603;28;20049;-53
2022/10/30 03:44:57;;;;;;;1.70;1.60;;;;;;;21.83;62.29;99385.00;2068595;28;20533;-53
2022/10/30 03:45:59;;;;;;;1.98;1.48;;;;;;;21.82;62.67;99391.44;2068263;28;20073;-52
2022/10/30 03:47:00;;;;;;;1.55;1.30;;;;;;;21.82;62.50;99391.44;2068165;28;20053;-52
2022/10/30 03:48:02;;;;;;;3.35;2.03;;;;;;;21.81;62.57;99387.91;2068220;28;20054;-52
2022/10/30 03:49:03;;;;;;;2.45;1.55;;;;;;;21.82;62.68;99394.97;2069187;28;20054;-53
2022/10/30 03:50:05;;;;;;;3.05;1.45;;;;;;;21.80;62.41;99391.63;2069775;28;20049;-54
2022/10/30 03:51:06;;;;;;;3.25;2.00;;;;;;;21.81;62.42;99396.03;2069337;28;20352;-52
2022/10/30 03:52:08;;;;;;;3.70;1.83;;;;;;;21.80;62.66;99394.34;2071008;28;20429;-55
2022/10/30 03:53:10;;;;;;;3.75;1.98;;;;;;;21.80;62.44;99391.63;2068504;28;20053;-53
2022/10/30 03:54:12;;;;;;;2.63;1.65;;;;;;;21.78;62.60;99393.69;2069705;28;20575;-53
2022/10/30 03:55:13;;;;;;;5.47;2.35;;;;;;;21.80;62.59;99396.22;2070834;28;20057;-51
2022/10/30 03:56:14;;;;;;;;;;;;;;;21.68;62.75;99389.78;2070048;28;20647;-52
2022/10/30 03:57:15;;;;;;;2.05;1.58;;;;;;;21.73;62.74;99398.91;2069038;28;19929;-50
2022/10/30 03:58:17;;;;;;;1.85;1.23;;;;;;;21.75;62.95;99398.69;2071032;28;20627;-53
2022/10/30 03:59:18;;;;;;;2.50;1.42;;;;;;;21.76;62.71;99395.81;2070138;28;20058;-53
2022/10/30 04:00:20;;;;;;;3.45;1.52;;;;;;;21.78;62.72;99395.56;2071353;28;20055;-54
2022/10/30 04:01:21;;;;;;;3.67;1.80;;;;;;;21.78;62.55;99400.97;2070367;28;20128;-51
2022/10/30 04:02:23;;;;;;;3.00;2.10;;;;;;;21.79;62.51;99394.56;2070892;28;20142;-53
2022/10/30 04:03:24;;;;;;;3.17;1.88;;;;;;;21.80;62.51;99390.81;2070361;28;20049;-54
2022/10/30 04:04:25;;;;;;;2.80;2.00;;;;;;;21.79;62.66;99394.56;2070468;28;20060;-53
2022/10/30 04:05:27;;;;;;;2.00;1.42;;;;;;;21.79;62.67;99397.25;2071187;28;20053;-52
2022/10/30 04:06:29;;;;;;;2.50;1.40;;;;;;;21.79;62.49;99399.97;2071595;28;20045;-51
2022/10/30 04:07:30;;;;;;;4.20;1.85;;;;;;;21.79;62.75;99399.97;2076794;28;20060;-53
2022/10/30 04:08:33;;;;;;;2.83;2.15;;;;;;;21.78;62.77;99393.69;2070699;28;20053;-56
2022/10/30 04:09:34;;;;;;;2.67;1.67;;;;;;;21.79;62.54;99402.66;2072572;28;20057;-53
2022/10/30 04:10:36;;;;;;;2.83;1.63;;;;;;;21.78;62.72;99388.31;2070600;28;20600;-54
2022/10/30 04:11:37;;;;;;;2.40;1.48;;;;;;;21.78;62.64;99398.28;2067978;28;20050;-51
2022/10/30 04:12:39;;;;;;;3.47;1.80;;;;;;;21.77;62.83;99396.63;2070279;28;20727;-50
2022/10/30 04:13:40;;;;;;;2.05;1.55;;;;;;;21.78;62.59;99403.69;2066628;28;20058;-53
2022/10/30 04:14:42;;;;;;;3.33;1.60;;;;;;;21.78;62.62;99398.28;2066295;28;21759;-52
2022/10/30 04:15:43;;;;;;;3.72;2.15;;;;;;;21.78;62.83;99393.69;2066129;28;20061;-51
2022/10/30 04:16:44;;;;;;;;;;;;;;;21.64;63.25;99392.84;2067719;28;20049;-53
2022/10/30 04:17:49;;;;;;;2.97;1.80;;;;;;;21.69;62.81;99400.34;2071879;28;19925;-53
2022/10/30 04:18:51;;;;;;;2.30;1.52;;;;;;;21.70;63.01;99391.19;2071271;28;20115;-52
2022/10/30 04:19:52;;;;;;;2.25;1.48;;;;;;;21.74;62.88;99394.34;2070178;28;20049;-53
2022/10/30 04:20:54;;;;;;;2.30;1.63;;;;;;;21.75;62.63;99402.22;2069497;28;20100;-54
2022/10/30 04:21:55;;;;;;;2.55;1.50;;;;;;;21.75;62.72;99399.53;2063575;28;20105;-53
2022/10/30 04:22:58;;;;;;;2.70;1.88;;;;;;;21.77;62.64;99399.31;2067887;28;22922;-55
2022/10/30 04:24:00;;;;;;;2.97;1.75;;;;;;;21.77;62.93;99396.63;2066750;28;20053;-51
2022/10/30 04:25:02;;;;;;;2.85;1.25;;;;;;;21.77;62.85;99393.94;2065200;28;20060;-53
2022/10/30 04:26:03;;;;;;;2.20;1.33;;;;;;;21.79;62.68;99391.88;2066932;28;20053;-53
2022/10/30 04:27:04;;;;;;;3.55;1.58;;;;;;;21.77;62.66;99394.75;2066385;28;20129;-53
2022/10/30 04:28:05;;;;;;;2.30;1.30;;;;;;;21.78;62.80;99395.56;2068438;28;20611;-52
2022/10/30 04:29:07;;;;;;;2.00;1.45;;;;;;;21.78;62.60;99396.41;2065668;28;20045;-52
2022/10/30 04:30:10;;;;;;;4.75;1.60;;;;;;;21.77;62.54;99396.63;2067972;28;20516;-53
2022/10/30 04:31:12;;;;;;;1.83;1.30;;;;;;;21.76;62.62;99392.28;2066829;28;20065;-53
2022/10/30 04:32:13;;;;;;;3.25;2.03;;;;;;;21.77;62.75;99393.94;2067343;28;20049;-54
2022/10/30 04:33:15;;;;;;;1.67;1.38;;;;;;;21.76;62.58;99390.41;2065888;28;20045;-53
2022/10/30 04:34:16;;;;;;;3.47;2.30;;;;;;;21.77;62.50;99396.63;2068873;28;20045;-53
2022/10/30 04:35:19;;;;;;;2.60;1.65;;;;;;;21.76;62.90;99390.41;2067084;28;20063;-54
2022/10/30 04:36:23;;;;;;;4.22;1.77;;;;;;;21.75;62.83;99394.13;2067787;28;20061;-51
2022/10/30 04:37:24;;;;;;;6.78;1.60;;;;;;;21.76;62.69;99386.88;2068732;28;20049;-52
2022/10/30 04:38:25;;;;;;;;;;;;;;;21.63;63.01;99398.47;2067657;28;20049;-53
2022/10/30 04:39:27;;;;;;;;;;;;;;;21.56;63.25;99395.78;2067791;28;19931;-53
2022/10/30 04:40:30;;;;;;;3.55;1.52;;;;;;;21.61;63.13;99389.75;2066495;28;20540;-54
2022/10/30 04:41:31;;;;;;;4.25;2.88;;;;;;;21.67;63.09;99393.50;2065734;28;20050;-53
2022/10/30 04:42:33;;;;;;;2.17;1.33;;;;;;;21.70;62.67;99390.38;2065262;28;20680;-53
2022/10/30 04:43:34;;;;;;;1.98;1.38;;;;;;;21.71;62.49;99392.88;2063561;28;20057;-54
2022/10/30 04:44:36;;;;;;;3.20;1.85;;;;;;;21.71;62.54;99390.19;2066911;28;20617;-52
2022/10/30 04:45:37;;;;;;;2.00;1.73;;;;;;;21.72;62.69;99385.59;2067275;28;20049;-51
2022/10/30 04:46:39;;;;;;;3.20;1.65;;;;;;;;;;2066772;28;20088;-53
2022/10/30 04:47:40;;;;;;;3.45;1.80;;;;;;;;;;2066921;28;20070;-53
2022/10/30 04:48:41;;;;;;;5.20;1.75;;;;;;;21.73;62.68;99387.25;2066309;28;20077;-53
2022/10/30 04:49:42;;;;;;;4.53;1.60;;;;;;;21.72;62.46;99388.31;2065728;28;20065;-53
2022/10/30 04:50:44;;;;;;;2.05;1.63;;;;;;;21.73;62.59;99387.25;2065731;28;20519;-53
2022/10/30 04:51:46;;;;;;;2.58;1.52;;;;;;;21.73;62.50;99381.84;2067617;28;20053;-53
2022/10/30 04:52:48;;;;;;;3.45;2.47;;;;;;;21.73;62.51;99381.84;2066999;28;20945;-53
2022/10/30 04:53:48;;;;;;;2.58;1.67;;;;;;;21.71;62.62;99382.09;2065076;28;20041;-53
2022/10/30 04:54:52;;;;;;;2.03;1.48;;;;;;;21.73;62.40;99381.84;2066864;28;20404;-53
2022/10/30 04:55:53;;;;;;;2.15;1.45;;;;;;;21.72;62.59;99388.31;2066122;28;20057;-53
2022/10/30 04:56:55;;;;;;;2.58;1.58;;;;;;;21.72;62.43;99385.59;2067256;28;20110;-54
2022/10/30 04:57:56;;;;;;;4.55;1.60;;;;;;;21.71;62.62;99382.09;2069146;28;20046;-54
2022/10/30 04:58:58;;;;;;;2.78;1.45;;;;;;;;;;2068548;28;20127;-53